sensor_id;sensor_type;location;lat;lon;timestamp;temperature;humidity
46608;DHT22;32330;51.936;7.184;2022-11-25T03:16:46;7.50;99.90
46608;DHT22;32330;51.936;7.184;2022-11-25T03:19:13;7.50;99.90
46608;DHT22;32330;51.936;7.184;2022-11-25T03:21:40;7.50;99.90
46608;DHT22;32330;51.936;7.184;2022-11-25T03:24:07;7.50;99.90
46608;DHT22;32330;51.936;7.184;2022-11-25T03:26:34;7.50;99.90
46608;DHT22;32330;51.936;7.184;2022-11-25T03:29:01;7.50;99.90
46608;DHT22;32330;51.936;7.184;2022-11-25T03:31:28;7.50;99.90
46608;DHT22;32330;51.936;7.184;2022-11-25T03:33:56;7.50;99.90
46608;DHT22;32330;51.936;7.184;2022-11-25T03:36:23;7.60;99.90
46608;DHT22;32330;51.936;7.184;2022-11-25T03:38:50;7.60;99.90
46608;DHT22;32330;51.936;7.184;2022-11-25T03:41:17;7.60;99.90
46608;DHT22;32330;51.936;7.184;2022-11-25T03:43:44;7.60;99.90
46608;DHT22;32330;51.936;7.184;2022-11-25T03:46:11;7.70;99.90
46608;DHT22;32330;51.936;7.184;2022-11-25T03:48:38;7.70;99.90
46608;DHT22;32330;51.936;7.184;2022-11-25T03:51:08;7.70;99.90
46608;DHT22;32330;51.936;7.184;2022-11-25T03:53:36;7.70;99.90
46608;DHT22;32330;51.936;7.184;2022-11-25T03:56:06;7.80;99.90
46608;DHT22;32330;51.936;7.184;2022-11-25T03:58:33;7.80;99.90
46608;DHT22;32330;51.936;7.184;2022-11-25T04:01:02;7.80;99.90
46608;DHT22;32330;51.936;7.184;2022-11-25T04:03:30;7.80;99.90
46608;DHT22;32330;51.936;7.184;2022-11-25T04:05:57;7.80;99.90
46608;DHT22;32330;51.936;7.184;2022-11-25T04:08:26;7.80;99.90
46608;DHT22;32330;51.936;7.184;2022-11-25T04:10:53;7.90;99.90
46608;DHT22;32330;51.936;7.184;2022-11-25T04:13:23;7.90;99.90
46608;DHT22;32330;51.936;7.184;2022-11-25T04:15:50;7.90;99.90
46608;DHT22;32330;51.936;7.184;2022-11-25T04:18:18;7.90;99.90
46608;DHT22;32330;51.936;7.184;2022-11-25T04:20:49;7.90;99.90
46608;DHT22;32330;51.936;7.184;2022-11-25T04:23:16;7.90;99.90
46608;DHT22;32330;51.936;7.184;2022-11-25T04:25:55;7.90;99.90
46608;DHT22;32330;51.936;7.184;2022-11-25T04:28:28;7.90;99.90
46608;DHT22;32330;51.936;7.184;2022-11-25T04:30:55;7.90;99.90
46608;DHT22;32330;51.936;7.184;2022-11-25T04:33:22;7.90;99.90
46608;DHT22;32330;51.936;7.184;2022-11-25T04:35:49;7.90;99.90
46608;DHT22;32330;51.936;7.184;2022-11-25T04:38:16;7.90;99.90
46608;DHT22;32330;51.936;7.184;2022-11-25T04:40:43;7.90;99.90
46608;DHT22;32330;51.936;7.184;2022-11-25T04:43:15;7.90;99.90
46608;DHT22;32330;51.936;7.184;2022-11-25T04:45:49;7.90;99.90
46608;DHT22;32330;51.936;7.184;2022-11-25T04:48:17;7.90;99.90
46608;DHT22;32330;51.936;7.184;2022-11-25T04:50:44;7.90;99.90
46608;DHT22;32330;51.936;7.184;2022-11-25T04:53:12;7.90;99.90
46608;DHT22;32330;51.936;7.184;2022-11-25T04:55:39;8.00;99.90
46608;DHT22;32330;51.936;7.184;2022-11-25T04:58:11;8.00;99.90
46608;DHT22;32330;51.936;7.184;2022-11-25T05:00:41;8.00;99.90
46608;DHT22;32330;51.936;7.184;2022-11-25T05:03:09;8.00;99.90
46608;DHT22;32330;51.936;7.184;2022-11-25T05:05:37;8.00;99.90
46608;DHT22;32330;51.936;7.184;2022-11-25T05:08:05;8.00;99.90
46608;DHT22;32330;51.936;7.184;2022-11-25T05:10:32;8.00;99.90
46608;DHT22;32330;51.936;7.184;2022-11-25T05:12:59;8.10;99.90
46608;DHT22;32330;51.936;7.184;2022-11-25T05:15:26;8.10;99.90
46608;DHT22;32330;51.936;7.184;2022-11-25T05:17:55;8.10;99.90
46608;DHT22;32330;51.936;7.184;2022-11-25T05:20:37;8.10;99.90
46608;DHT22;32330;51.936;7.184;2022-11-25T05:23:04;8.10;99.90
46608;DHT22;32330;51.936;7.184;2022-11-25T05:25:32;8.10;99.90
46608;DHT22;32330;51.936;7.184;2022-11-25T05:28:18;8.20;99.90
46608;DHT22;32330;51.936;7.184;2022-11-25T05:30:45;8.20;99.90
46608;DHT22;32330;51.936;7.184;2022-11-25T05:33:13;8.20;99.90
46608;DHT22;32330;51.936;7.184;2022-11-25T05:35:40;8.10;99.90
46608;DHT22;32330;51.936;7.184;2022-11-25T05:38:08;8.20;99.90
46608;DHT22;32330;51.936;7.184;2022-11-25T05:40:36;8.20;99.90
46608;DHT22;32330;51.936;7.184;2022-11-25T05:43:07;8.20;99.90
46608;DHT22;32330;51.936;7.184;2022-11-25T05:45:37;8.20;99.90
46608;DHT22;32330;51.936;7.184;2022-11-25T05:48:06;8.20;99.90
46608;DHT22;32330;51.936;7.184;2022-11-25T05:50:36;8.20;99.90
46608;DHT22;32330;51.936;7.184;2022-11-25T05:53:10;8.20;99.90
46608;DHT22;32330;51.936;7.184;2022-11-25T05:55:39;8.30;99.90
46608;DHT22;32330;51.936;7.184;2022-11-25T05:58:15;8.30;99.90
46608;DHT22;32330;51.936;7.184;2022-11-25T06:00:45;8.30;99.90
46608;DHT22;32330;51.936;7.184;2022-11-25T06:03:12;8.30;99.90
46608;DHT22;32330;51.936;7.184;2022-11-25T06:05:40;8.30;99.90
46608;DHT22;32330;51.936;7.184;2022-11-25T06:08:07;8.40;99.90
46608;DHT22;32330;51.936;7.184;2022-11-25T06:10:37;8.30;99.90
46608;DHT22;32330;51.936;7.184;2022-11-25T06:13:04;8.40;99.90
46608;DHT22;32330;51.936;7.184;2022-11-25T06:15:31;8.40;99.90
46608;DHT22;32330;51.936;7.184;2022-11-25T06:17:59;8.40;99.90
46608;DHT22;32330;51.936;7.184;2022-11-25T06:20:27;8.40;99.90
46608;DHT22;32330;51.936;7.184;2022-11-25T06:22:56;8.40;99.90
46608;DHT22;32330;51.936;7.184;2022-11-25T06:25:29;8.40;99.90
46608;DHT22;32330;51.936;7.184;2022-11-25T06:27:57;8.40;99.90
46608;DHT22;32330;51.936;7.184;2022-11-25T06:30:25;8.40;99.90
46608;DHT22;32330;51.936;7.184;2022-11-25T06:33:14;8.50;99.90
46608;DHT22;32330;51.936;7.184;2022-11-25T06:35:44;8.50;99.90
46608;DHT22;32330;51.936;7.184;2022-11-25T06:38:12;8.50;99.90
46608;DHT22;32330;51.936;7.184;2022-11-25T06:40:39;8.50;99.90
46608;DHT22;32330;51.936;7.184;2022-11-25T06:43:06;8.50;99.90
46608;DHT22;32330;51.936;7.184;2022-11-25T06:45:33;8.50;99.90
46608;DHT22;32330;51.936;7.184;2022-11-25T06:47:59;8.50;99.90
46608;DHT22;32330;51.936;7.184;2022-11-25T06:50:26;8.50;99.90
46608;DHT22;32330;51.936;7.184;2022-11-25T06:52:53;8.50;99.90
46608;DHT22;32330;51.936;7.184;2022-11-25T06:55:21;8.50;99.90
46608;DHT22;32330;51.936;7.184;2022-11-25T06:57:48;8.50;99.90
46608;DHT22;32330;51.936;7.184;2022-11-25T07:00:16;8.50;99.90
46608;DHT22;32330;51.936;7.184;2022-11-25T07:02:43;8.60;99.90
46608;DHT22;32330;51.936;7.184;2022-11-25T07:05:10;8.60;99.90
46608;DHT22;32330;51.936;7.184;2022-11-25T07:07:37;8.60;99.90
46608;DHT22;32330;51.936;7.184;2022-11-25T07:10:05;8.60;99.90
46608;DHT22;32330;51.936;7.184;2022-11-25T07:12:33;8.60;99.90
46608;DHT22;32330;51.936;7.184;2022-11-25T07:15:00;8.60;99.90
46608;DHT22;32330;51.936;7.184;2022-11-25T07:17:27;8.60;99.90
46608;DHT22;32330;51.936;7.184;2022-11-25T07:19:54;8.60;99.90
46608;DHT22;32330;51.936;7.184;2022-11-25T07:22:21;8.50;99.90
46608;DHT22;32330;51.936;7.184;2022-11-25T07:24:48;8.50;99.90
46608;DHT22;32330;51.936;7.184;2022-11-25T07:27:15;8.50;99.90
46608;DHT22;32330;51.936;7.184;2022-11-25T07:29:44;8.50;99.90
46608;DHT22;32330;51.936;7.184;2022-11-25T07:32:10;8.50;99.90
46608;DHT22;32330;51.936;7.184;2022-11-25T07:34:37;8.50;99.90
46608;DHT22;32330;51.936;7.184;2022-11-25T07:37:04;8.50;99.90
46608;DHT22;32330;51.936;7.184;2022-11-25T07:39:31;8.50;99.90
46608;DHT22;32330;51.936;7.184;2022-11-25T07:41:58;8.50;99.90
46608;DHT22;32330;51.936;7.184;2022-11-25T07:44:25;8.60;99.90
46608;DHT22;32330;51.936;7.184;2022-11-25T07:47:01;8.60;99.90
46608;DHT22;32330;51.936;7.184;2022-11-25T07:49:28;8.60;99.90
46608;DHT22;32330;51.936;7.184;2022-11-25T07:51:57;8.60;99.90
46608;DHT22;32330;51.936;7.184;2022-11-25T07:54:25;8.60;99.90
46608;DHT22;32330;51.936;7.184;2022-11-25T07:56:52;8.60;99.90
46608;DHT22;32330;51.936;7.184;2022-11-25T07:59:20;8.60;99.90
46608;DHT22;32330;51.936;7.184;2022-11-25T08:01:48;8.60;99.90
46608;DHT22;32330;51.936;7.184;2022-11-25T08:04:17;8.60;99.90
46608;DHT22;32330;51.936;7.184;2022-11-25T08:06:45;8.60;99.90
46608;DHT22;32330;51.936;7.184;2022-11-25T08:09:14;8.60;99.90
46608;DHT22;32330;51.936;7.184;2022-11-25T08:11:44;8.60;99.90
46608;DHT22;32330;51.936;7.184;2022-11-25T08:14:12;8.70;99.90
46608;DHT22;32330;51.936;7.184;2022-11-25T08:16:39;8.70;99.90
46608;DHT22;32330;51.936;7.184;2022-11-25T08:19:08;8.70;99.90
46608;DHT22;32330;51.936;7.184;2022-11-25T08:21:37;8.70;99.90
46608;DHT22;32330;51.936;7.184;2022-11-25T08:24:05;8.70;99.90
46608;DHT22;32330;51.936;7.184;2022-11-25T08:26:34;8.70;99.90
46608;DHT22;32330;51.936;7.184;2022-11-25T08:29:03;8.80;99.90
46608;DHT22;32330;51.936;7.184;2022-11-25T08:31:32;8.80;99.90
46608;DHT22;32330;51.936;7.184;2022-11-25T08:34:00;8.90;99.90
46608;DHT22;32330;51.936;7.184;2022-11-25T08:36:28;8.90;99.90
46608;DHT22;32330;51.936;7.184;2022-11-25T08:38:57;9.00;99.90
46608;DHT22;32330;51.936;7.184;2022-11-25T08:41:27;9.00;99.90
46608;DHT22;32330;51.936;7.184;2022-11-25T08:43:55;9.00;99.90
46608;DHT22;32330;51.936;7.184;2022-11-25T08:46:24;9.00;99.90
46608;DHT22;32330;51.936;7.184;2022-11-25T08:48:51;9.00;99.90
46608;DHT22;32330;51.936;7.184;2022-11-25T08:51:21;9.00;99.90
46608;DHT22;32330;51.936;7.184;2022-11-25T08:53:48;8.90;99.90
46608;DHT22;32330;51.936;7.184;2022-11-25T08:56:18;9.00;99.90
46608;DHT22;32330;51.936;7.184;2022-11-25T08:58:45;9.00;99.90
46608;DHT22;32330;51.936;7.184;2022-11-25T09:01:13;9.10;99.90
46608;DHT22;32330;51.936;7.184;2022-11-25T09:03:45;9.10;99.90
46608;DHT22;32330;51.936;7.184;2022-11-25T09:06:13;9.10;99.90
46608;DHT22;32330;51.936;7.184;2022-11-25T09:08:42;9.10;99.90
46608;DHT22;32330;51.936;7.184;2022-11-25T09:11:09;9.10;99.90
46608;DHT22;32330;51.936;7.184;2022-11-25T09:13:38;9.10;99.90
46608;DHT22;32330;51.936;7.184;2022-11-25T09:16:05;9.20;99.90
46608;DHT22;32330;51.936;7.184;2022-11-25T09:18:33;9.20;99.90
46608;DHT22;32330;51.936;7.184;2022-11-25T09:21:07;9.30;99.90
46608;DHT22;32330;51.936;7.184;2022-11-25T09:23:35;9.30;99.90
46608;DHT22;32330;51.936;7.184;2022-11-25T09:26:03;9.40;99.90
46608;DHT22;32330;51.936;7.184;2022-11-25T09:28:32;9.40;99.90
46608;DHT22;32330;51.936;7.184;2022-11-25T09:31:06;9.50;99.90
46608;DHT22;32330;51.936;7.184;2022-11-25T09:33:33;9.50;99.90
46608;DHT22;32330;51.936;7.184;2022-11-25T09:36:00;9.60;99.90
46608;DHT22;32330;51.936;7.184;2022-11-25T09:38:30;9.60;99.90
46608;DHT22;32330;51.936;7.184;2022-11-25T09:41:00;9.70;99.90
46608;DHT22;32330;51.936;7.184;2022-11-25T09:43:38;9.70;99.90
46608;DHT22;32330;51.936;7.184;2022-11-25T09:46:38;9.80;99.90
46608;DHT22;32330;51.936;7.184;2022-11-25T09:49:28;9.80;99.90
46608;DHT22;32330;51.936;7.184;2022-11-25T09:52:02;9.90;99.90
46608;DHT22;32330;51.936;7.184;2022-11-25T09:54:36;9.90;99.90
46608;DHT22;32330;51.936;7.184;2022-11-25T09:57:17;9.90;99.90
46608;DHT22;32330;51.936;7.184;2022-11-25T09:59:52;9.80;99.90
46608;DHT22;32330;51.936;7.184;2022-11-25T10:02:26;9.70;99.90
46608;DHT22;32330;51.936;7.184;2022-11-25T10:05:00;9.80;99.90
46608;DHT22;32330;51.936;7.184;2022-11-25T10:07:34;9.80;99.90
46608;DHT22;32330;51.936;7.184;2022-11-25T10:10:04;10.00;99.90
46608;DHT22;32330;51.936;7.184;2022-11-25T10:12:36;10.10;99.90
46608;DHT22;32330;51.936;7.184;2022-11-25T10:15:11;10.20;99.90
46608;DHT22;32330;51.936;7.184;2022-11-25T10:17:44;10.20;99.90
46608;DHT22;32330;51.936;7.184;2022-11-25T10:20:17;10.20;99.90
46608;DHT22;32330;51.936;7.184;2022-11-25T10:22:45;10.20;99.90
46608;DHT22;32330;51.936;7.184;2022-11-25T10:25:16;10.30;99.90
46608;DHT22;32330;51.936;7.184;2022-11-25T10:27:48;10.30;99.90
46608;DHT22;32330;51.936;7.184;2022-11-25T10:30:18;10.30;99.90
46608;DHT22;32330;51.936;7.184;2022-11-25T10:32:50;10.40;99.90
46608;DHT22;32330;51.936;7.184;2022-11-25T10:35:24;10.50;99.90
46608;DHT22;32330;51.936;7.184;2022-11-25T10:37:56;10.70;99.90
46608;DHT22;32330;51.936;7.184;2022-11-25T10:40:25;10.70;99.90
46608;DHT22;32330;51.936;7.184;2022-11-25T10:42:52;10.70;97.60
46608;DHT22;32330;51.936;7.184;2022-11-25T10:45:24;10.60;97.60
46608;DHT22;32330;51.936;7.184;2022-11-25T10:48:09;10.50;97.50
46608;DHT22;32330;51.936;7.184;2022-11-25T10:50:47;10.50;97.70
46608;DHT22;32330;51.936;7.184;2022-11-25T10:53:20;10.50;96.80
46608;DHT22;32330;51.936;7.184;2022-11-25T10:55:59;10.60;96.80
46608;DHT22;32330;51.936;7.184;2022-11-25T10:58:30;10.60;95.90
46608;DHT22;32330;51.936;7.184;2022-11-25T11:01:13;10.60;94.70
46608;DHT22;32330;51.936;7.184;2022-11-25T11:03:43;10.60;92.90
46608;DHT22;32330;51.936;7.184;2022-11-25T11:06:29;10.50;94.00
46608;DHT22;32330;51.936;7.184;2022-11-25T11:08:56;10.50;93.00
46608;DHT22;32330;51.936;7.184;2022-11-25T11:11:24;10.60;93.90
46608;DHT22;32330;51.936;7.184;2022-11-25T11:13:58;10.70;93.10
46608;DHT22;32330;51.936;7.184;2022-11-25T11:16:38;10.70;90.30
46608;DHT22;32330;51.936;7.184;2022-11-25T11:19:19;10.80;90.80
46608;DHT22;32330;51.936;7.184;2022-11-25T11:21:47;10.80;90.80
46608;DHT22;32330;51.936;7.184;2022-11-25T11:24:24;10.80;88.70
46608;DHT22;32330;51.936;7.184;2022-11-25T11:27:01;10.80;90.00
46608;DHT22;32330;51.936;7.184;2022-11-25T11:29:28;10.90;86.90
46608;DHT22;32330;51.936;7.184;2022-11-25T11:31:58;10.80;87.30
46608;DHT22;32330;51.936;7.184;2022-11-25T11:34:48;10.80;91.00
46608;DHT22;32330;51.936;7.184;2022-11-25T11:37:31;10.90;92.10
46608;DHT22;32330;51.936;7.184;2022-11-25T11:40:16;11.00;91.00
46608;DHT22;32330;51.936;7.184;2022-11-25T11:42:55;11.00;91.70
46608;DHT22;32330;51.936;7.184;2022-11-25T11:45:45;11.10;88.10
46608;DHT22;32330;51.936;7.184;2022-11-25T11:48:22;11.20;82.80
46608;DHT22;32330;51.936;7.184;2022-11-25T11:50:58;11.20;89.00
46608;DHT22;32330;51.936;7.184;2022-11-25T11:53:30;11.30;85.70
46608;DHT22;32330;51.936;7.184;2022-11-25T11:56:01;11.30;83.10
46608;DHT22;32330;51.936;7.184;2022-11-25T11:58:43;11.30;85.30
46608;DHT22;32330;51.936;7.184;2022-11-25T12:01:24;11.40;83.70
46608;DHT22;32330;51.936;7.184;2022-11-25T12:03:57;11.50;85.60
46608;DHT22;32330;51.936;7.184;2022-11-25T12:06:30;11.40;79.40
46608;DHT22;32330;51.936;7.184;2022-11-25T12:09:02;11.50;78.70
46608;DHT22;32330;51.936;7.184;2022-11-25T12:11:33;11.50;78.00
46608;DHT22;32330;51.936;7.184;2022-11-25T12:14:05;11.60;74.50
46608;DHT22;32330;51.936;7.184;2022-11-25T12:16:39;11.60;77.30
46608;DHT22;32330;51.936;7.184;2022-11-25T12:19:13;11.50;78.90
46608;DHT22;32330;51.936;7.184;2022-11-25T12:21:47;11.40;79.10
46608;DHT22;32330;51.936;7.184;2022-11-25T12:24:21;11.30;81.40
46608;DHT22;32330;51.936;7.184;2022-11-25T12:26:55;11.30;85.60
46608;DHT22;32330;51.936;7.184;2022-11-25T12:29:30;11.40;85.40
46608;DHT22;32330;51.936;7.184;2022-11-25T12:32:18;11.40;80.90
46608;DHT22;32330;51.936;7.184;2022-11-25T12:34:52;11.50;82.20
46608;DHT22;32330;51.936;7.184;2022-11-25T12:37:29;11.60;83.30
46608;DHT22;32330;51.936;7.184;2022-11-25T12:40:03;11.70;79.40
46608;DHT22;32330;51.936;7.184;2022-11-25T12:42:35;11.70;75.50
46608;DHT22;32330;51.936;7.184;2022-11-25T12:45:08;11.70;78.10
46608;DHT22;32330;51.936;7.184;2022-11-25T12:47:37;11.70;78.60
46608;DHT22;32330;51.936;7.184;2022-11-25T12:50:05;11.70;71.50
46608;DHT22;32330;51.936;7.184;2022-11-25T12:52:49;11.60;75.20
46608;DHT22;32330;51.936;7.184;2022-11-25T12:55:20;11.70;76.00
46608;DHT22;32330;51.936;7.184;2022-11-25T12:58:08;11.70;72.80
46608;DHT22;32330;51.936;7.184;2022-11-25T13:00:58;11.60;72.80
46608;DHT22;32330;51.936;7.184;2022-11-25T13:04:02;11.60;76.90
46608;DHT22;32330;51.936;7.184;2022-11-25T13:06:52;11.70;75.40
46608;DHT22;32330;51.936;7.184;2022-11-25T13:09:49;11.60;74.00
46608;DHT22;32330;51.936;7.184;2022-11-25T13:12:31;11.60;72.50
46608;DHT22;32330;51.936;7.184;2022-11-25T13:15:22;11.60;75.20
46608;DHT22;32330;51.936;7.184;2022-11-25T13:17:55;11.60;75.60
46608;DHT22;32330;51.936;7.184;2022-11-25T13:20:47;11.70;68.70
46608;DHT22;32330;51.936;7.184;2022-11-25T13:23:29;11.60;72.30
46608;DHT22;32330;51.936;7.184;2022-11-25T13:32:01;11.60;72.80
46608;DHT22;32330;51.936;7.184;2022-11-25T13:34:31;11.50;73.80
46608;DHT22;32330;51.936;7.184;2022-11-25T13:36:59;11.50;73.90
46608;DHT22;32330;51.936;7.184;2022-11-25T13:39:31;11.50;75.60
46608;DHT22;32330;51.936;7.184;2022-11-25T13:42:01;11.50;76.60
46608;DHT22;32330;51.936;7.184;2022-11-25T13:44:31;11.50;76.40
46608;DHT22;32330;51.936;7.184;2022-11-25T13:47:32;11.50;74.30
46608;DHT22;32330;51.936;7.184;2022-11-25T13:50:03;11.50;75.50
46608;DHT22;32330;51.936;7.184;2022-11-25T13:52:35;11.50;77.50
46608;DHT22;32330;51.936;7.184;2022-11-25T13:55:09;11.50;76.30
46608;DHT22;32330;51.936;7.184;2022-11-25T13:57:48;11.50;77.50
46608;DHT22;32330;51.936;7.184;2022-11-25T14:03:52;11.50;79.90
46608;DHT22;32330;51.936;7.184;2022-11-25T14:06:44;11.50;78.30
46608;DHT22;32330;51.936;7.184;2022-11-25T14:09:31;11.40;78.70
46608;DHT22;32330;51.936;7.184;2022-11-25T14:15:00;11.40;83.80
46608;DHT22;32330;51.936;7.184;2022-11-25T14:20:31;11.40;83.10
46608;DHT22;32330;51.936;7.184;2022-11-25T14:23:15;11.40;84.40
46608;DHT22;32330;51.936;7.184;2022-11-25T14:25:51;11.40;84.10
46608;DHT22;32330;51.936;7.184;2022-11-25T14:28:28;11.50;85.50
46608;DHT22;32330;51.936;7.184;2022-11-25T14:31:02;11.50;83.90
46608;DHT22;32330;51.936;7.184;2022-11-25T14:33:33;11.50;84.80
46608;DHT22;32330;51.936;7.184;2022-11-25T14:36:08;11.50;81.60
46608;DHT22;32330;51.936;7.184;2022-11-25T14:38:42;11.40;82.30
46608;DHT22;32330;51.936;7.184;2022-11-25T14:41:16;11.40;81.00
46608;DHT22;32330;51.936;7.184;2022-11-25T14:43:49;11.30;81.60
46608;DHT22;32330;51.936;7.184;2022-11-25T14:46:19;11.40;81.50
46608;DHT22;32330;51.936;7.184;2022-11-25T14:48:53;11.30;84.60
46608;DHT22;32330;51.936;7.184;2022-11-25T14:51:22;11.30;82.90
46608;DHT22;32330;51.936;7.184;2022-11-25T14:53:51;11.30;82.00
46608;DHT22;32330;51.936;7.184;2022-11-25T14:56:23;11.20;82.80
46608;DHT22;32330;51.936;7.184;2022-11-25T14:58:52;11.20;81.20
46608;DHT22;32330;51.936;7.184;2022-11-25T15:01:21;11.10;83.00
46608;DHT22;32330;51.936;7.184;2022-11-25T15:03:50;11.10;83.10
46608;DHT22;32330;51.936;7.184;2022-11-25T15:06:17;11.10;85.20
46608;DHT22;32330;51.936;7.184;2022-11-25T15:08:54;11.10;85.90
46608;DHT22;32330;51.936;7.184;2022-11-25T15:11:24;11.10;84.70
46608;DHT22;32330;51.936;7.184;2022-11-25T15:13:54;11.10;87.30
46608;DHT22;32330;51.936;7.184;2022-11-25T15:16:29;11.10;86.50
46608;DHT22;32330;51.936;7.184;2022-11-25T15:18:58;11.10;87.30
46608;DHT22;32330;51.936;7.184;2022-11-25T15:21:28;11.00;87.60
46608;DHT22;32330;51.936;7.184;2022-11-25T15:23:57;11.00;88.70
46608;DHT22;32330;51.936;7.184;2022-11-25T15:26:27;11.00;89.30
46608;DHT22;32330;51.936;7.184;2022-11-25T15:28:55;11.00;89.50
46608;DHT22;32330;51.936;7.184;2022-11-25T15:31:25;10.90;90.40
46608;DHT22;32330;51.936;7.184;2022-11-25T15:33:56;10.90;90.70
46608;DHT22;32330;51.936;7.184;2022-11-25T15:36:24;10.90;91.20
46608;DHT22;32330;51.936;7.184;2022-11-25T15:38:51;10.90;91.60
46608;DHT22;32330;51.936;7.184;2022-11-25T15:41:27;10.90;92.30
46608;DHT22;32330;51.936;7.184;2022-11-25T15:43:57;10.90;93.70
46608;DHT22;32330;51.936;7.184;2022-11-25T15:46:25;10.80;94.10
46608;DHT22;32330;51.936;7.184;2022-11-25T15:48:54;10.80;95.40
46608;DHT22;32330;51.936;7.184;2022-11-25T15:51:35;10.80;95.60
46608;DHT22;32330;51.936;7.184;2022-11-25T15:54:06;10.70;96.00
46608;DHT22;32330;51.936;7.184;2022-11-25T15:56:45;10.70;96.10
46608;DHT22;32330;51.936;7.184;2022-11-25T15:59:40;10.70;96.30
46608;DHT22;32330;51.936;7.184;2022-11-25T16:02:48;10.60;96.90
46608;DHT22;32330;51.936;7.184;2022-11-25T16:05:22;10.70;97.30
46608;DHT22;32330;51.936;7.184;2022-11-25T16:07:57;10.60;97.40
46608;DHT22;32330;51.936;7.184;2022-11-25T16:10:26;10.70;97.70
46608;DHT22;32330;51.936;7.184;2022-11-25T16:13:21;10.60;97.80
46608;DHT22;32330;51.936;7.184;2022-11-25T16:15:55;10.60;97.80
46608;DHT22;32330;51.936;7.184;2022-11-25T16:18:30;10.60;97.80
46608;DHT22;32330;51.936;7.184;2022-11-25T16:21:01;10.60;97.80
46608;DHT22;32330;51.936;7.184;2022-11-25T16:23:32;10.60;98.00
46608;DHT22;32330;51.936;7.184;2022-11-25T16:26:01;10.60;98.30
46608;DHT22;32330;51.936;7.184;2022-11-25T16:28:30;10.50;98.10
46608;DHT22;32330;51.936;7.184;2022-11-25T16:30:57;10.50;98.30
46608;DHT22;32330;51.936;7.184;2022-11-25T16:33:26;10.50;98.80
46608;DHT22;32330;51.936;7.184;2022-11-25T16:35:53;10.40;99.10
46608;DHT22;32330;51.936;7.184;2022-11-25T16:38:20;10.40;99.20
46608;DHT22;32330;51.936;7.184;2022-11-25T16:40:49;10.40;99.40
46608;DHT22;32330;51.936;7.184;2022-11-25T16:43:20;10.30;99.80
46608;DHT22;32330;51.936;7.184;2022-11-25T16:45:51;10.30;99.80
46608;DHT22;32330;51.936;7.184;2022-11-25T16:48:21;10.30;99.90
46608;DHT22;32330;51.936;7.184;2022-11-25T16:50:49;10.30;99.90
46608;DHT22;32330;51.936;7.184;2022-11-25T16:53:17;10.30;99.90
46608;DHT22;32330;51.936;7.184;2022-11-25T16:55:44;10.20;99.90
46608;DHT22;32330;51.936;7.184;2022-11-25T16:58:18;10.20;99.90
46608;DHT22;32330;51.936;7.184;2022-11-25T17:00:50;10.20;99.90
46608;DHT22;32330;51.936;7.184;2022-11-25T17:03:17;10.20;99.90
46608;DHT22;32330;51.936;7.184;2022-11-25T17:05:44;10.20;99.90
46608;DHT22;32330;51.936;7.184;2022-11-25T17:08:11;10.10;99.90
46608;DHT22;32330;51.936;7.184;2022-11-25T17:10:39;10.10;99.90
46608;DHT22;32330;51.936;7.184;2022-11-25T17:13:08;10.10;99.90
46608;DHT22;32330;51.936;7.184;2022-11-25T17:15:38;10.10;99.90
46608;DHT22;32330;51.936;7.184;2022-11-25T17:18:06;10.10;99.90
46608;DHT22;32330;51.936;7.184;2022-11-25T17:20:33;10.10;99.90
46608;DHT22;32330;51.936;7.184;2022-11-25T17:23:00;10.10;99.90
46608;DHT22;32330;51.936;7.184;2022-11-25T17:25:28;10.20;99.90
46608;DHT22;32330;51.936;7.184;2022-11-25T17:27:55;10.10;99.90
46608;DHT22;32330;51.936;7.184;2022-11-25T17:30:24;10.10;99.90
46608;DHT22;32330;51.936;7.184;2022-11-25T17:32:56;10.10;99.90
46608;DHT22;32330;51.936;7.184;2022-11-25T17:35:26;10.10;99.90
46608;DHT22;32330;51.936;7.184;2022-11-25T17:37:53;10.10;99.90
46608;DHT22;32330;51.936;7.184;2022-11-25T17:40:20;10.00;99.90
46608;DHT22;32330;51.936;7.184;2022-11-25T17:42:46;10.10;99.90
46608;DHT22;32330;51.936;7.184;2022-11-25T17:45:16;10.00;99.90
46608;DHT22;32330;51.936;7.184;2022-11-25T17:47:44;10.10;99.90
46608;DHT22;32330;51.936;7.184;2022-11-25T17:50:15;10.00;99.90
46608;DHT22;32330;51.936;7.184;2022-11-25T17:52:43;10.00;99.90
46608;DHT22;32330;51.936;7.184;2022-11-25T17:55:11;10.00;99.90
46608;DHT22;32330;51.936;7.184;2022-11-25T17:57:38;10.00;99.90
46608;DHT22;32330;51.936;7.184;2022-11-25T18:00:14;10.10;99.90
46608;DHT22;32330;51.936;7.184;2022-11-25T18:02:43;10.00;99.90
46608;DHT22;32330;51.936;7.184;2022-11-25T18:05:48;10.00;99.90
46608;DHT22;32330;51.936;7.184;2022-11-25T18:09:53;10.00;99.90
46608;DHT22;32330;51.936;7.184;2022-11-25T18:12:30;10.00;99.90
46608;DHT22;32330;51.936;7.184;2022-11-25T18:14:59;10.00;99.90
46608;DHT22;32330;51.936;7.184;2022-11-25T18:17:32;9.90;99.90
46608;DHT22;32330;51.936;7.184;2022-11-25T18:19:59;9.90;99.90
46608;DHT22;32330;51.936;7.184;2022-11-25T18:22:26;9.90;99.90
46608;DHT22;32330;51.936;7.184;2022-11-25T18:24:56;9.90;99.90
46608;DHT22;32330;51.936;7.184;2022-11-25T18:27:25;9.80;99.90
46608;DHT22;32330;51.936;7.184;2022-11-25T18:29:54;9.80;99.90
46608;DHT22;32330;51.936;7.184;2022-11-25T18:32:21;9.80;99.90
46608;DHT22;32330;51.936;7.184;2022-11-25T18:34:49;9.80;99.90
46608;DHT22;32330;51.936;7.184;2022-11-25T18:37:16;9.80;99.90
46608;DHT22;32330;51.936;7.184;2022-11-25T18:39:43;9.70;99.90
46608;DHT22;32330;51.936;7.184;2022-11-25T18:42:19;9.60;99.90
46608;DHT22;32330;51.936;7.184;2022-11-25T18:44:48;9.60;99.90
46608;DHT22;32330;51.936;7.184;2022-11-25T18:47:14;9.50;99.90
46608;DHT22;32330;51.936;7.184;2022-11-25T18:49:41;9.50;99.90
46608;DHT22;32330;51.936;7.184;2022-11-25T18:52:08;9.50;99.90
46608;DHT22;32330;51.936;7.184;2022-11-25T18:54:35;9.40;99.90
46608;DHT22;32330;51.936;7.184;2022-11-25T18:57:02;9.40;99.90
46608;DHT22;32330;51.936;7.184;2022-11-25T18:59:33;9.40;99.90
46608;DHT22;32330;51.936;7.184;2022-11-25T19:02:00;9.30;99.90
46608;DHT22;32330;51.936;7.184;2022-11-25T19:04:27;9.30;99.90
46608;DHT22;32330;51.936;7.184;2022-11-25T19:06:54;9.20;99.90
46608;DHT22;32330;51.936;7.184;2022-11-25T19:09:21;9.20;99.90
46608;DHT22;32330;51.936;7.184;2022-11-25T19:11:50;9.20;99.90
46608;DHT22;32330;51.936;7.184;2022-11-25T19:14:25;9.20;99.90
46608;DHT22;32330;51.936;7.184;2022-11-25T19:16:56;9.20;99.90
46608;DHT22;32330;51.936;7.184;2022-11-25T19:19:24;9.20;99.90
46608;DHT22;32330;51.936;7.184;2022-11-25T19:21:51;9.20;99.90
46608;DHT22;32330;51.936;7.184;2022-11-25T19:24:18;9.20;99.90
46608;DHT22;32330;51.936;7.184;2022-11-25T19:26:46;9.10;99.90
46608;DHT22;32330;51.936;7.184;2022-11-25T19:29:17;9.10;99.90
46608;DHT22;32330;51.936;7.184;2022-11-25T19:31:45;9.10;99.90
46608;DHT22;32330;51.936;7.184;2022-11-25T19:34:22;9.10;99.90
46608;DHT22;32330;51.936;7.184;2022-11-25T19:36:51;9.10;99.90
46608;DHT22;32330;51.936;7.184;2022-11-25T19:39:18;9.10;99.90